createdAt,value
2023-03-23T00:00:15.101Z,0.8
2023-03-23T00:05:16.158Z,0.8
2023-03-23T00:07:50.433Z,0.9
2023-03-23T00:12:50.978Z,0.6
2023-03-23T00:17:51.347Z,0.9
2023-03-23T00:22:51.890Z,0.7
2023-03-23T00:27:52.140Z,0.6
2023-03-23T00:32:52.724Z,0.6
2023-03-23T00:37:53.138Z,0.5
2023-03-23T00:42:53.629Z,0.6
2023-03-23T00:47:53.996Z,0.4
2023-03-23T00:52:54.508Z,0.9
2023-03-23T00:57:54.820Z,0.7
2023-03-23T01:02:55.256Z,0.6
2023-03-23T01:07:55.852Z,1.2
2023-03-23T01:12:56.109Z,0.6
2023-03-23T01:17:56.462Z,0.8
2023-03-23T01:22:56.867Z,0.7
2023-03-23T01:27:57.268Z,1.0
2023-03-23T01:32:57.553Z,0.8
2023-03-23T01:37:58.005Z,0.8
2023-03-23T01:42:58.634Z,0.9
2023-03-23T01:47:58.949Z,0.9
2023-03-23T01:52:59.476Z,0.8
2023-03-23T01:57:59.907Z,0.8
2023-03-23T02:03:00.436Z,0.6
2023-03-23T02:08:00.799Z,0.9
2023-03-23T02:13:01.273Z,1.0
2023-03-23T02:18:01.667Z,0.6
2023-03-23T02:23:02.072Z,0.8
2023-03-23T02:28:02.729Z,0.8
2023-03-23T02:33:02.934Z,0.8
2023-03-23T02:38:03.521Z,0.8
2023-03-23T02:43:03.970Z,0.5
2023-03-23T02:48:04.363Z,1.1
2023-03-23T02:53:04.892Z,0.7
2023-03-23T02:58:05.270Z,0.6
2023-03-23T03:03:05.862Z,0.9
2023-03-23T03:08:05.893Z,0.8
2023-03-23T03:13:06.554Z,0.9
2023-03-23T03:18:06.947Z,0.8
2023-03-23T03:23:07.474Z,0.8
2023-03-23T03:28:07.820Z,0.8
2023-03-23T03:33:08.312Z,0.8
2023-03-23T03:38:08.780Z,0.8
2023-03-23T03:43:09.331Z,0.8
2023-03-23T03:48:09.831Z,0.7
2023-03-23T03:53:10.148Z,0.4
2023-03-23T03:58:10.750Z,0.8
2023-03-23T04:03:10.913Z,0.8
2023-03-23T04:08:11.855Z,0.6
2023-03-23T04:13:12.151Z,0.9
2023-03-23T04:18:12.344Z,0.8
2023-03-23T04:23:12.862Z,0.8
2023-03-23T04:28:13.415Z,0.5
2023-03-23T04:33:13.812Z,0.6
2023-03-23T04:38:14.092Z,0.8
2023-03-23T04:43:14.659Z,0.5
2023-03-23T04:48:15.039Z,0.8
2023-03-23T04:53:15.748Z,0.6
2023-03-23T04:58:16.169Z,0.6
2023-03-23T05:03:16.824Z,0.6
2023-03-23T05:08:17.004Z,0.6
2023-03-23T05:13:17.456Z,0.5
2023-03-23T05:18:17.905Z,0.6
2023-03-23T05:23:18.481Z,0.7
2023-03-23T05:28:18.793Z,0.7
2023-03-23T05:33:19.299Z,0.4
2023-03-23T05:38:19.656Z,0.2
2023-03-23T05:43:20.060Z,0.3
2023-03-23T05:48:20.581Z,0.0
2023-03-23T05:53:20.980Z,0.1
2023-03-23T05:58:21.557Z,0.1
2023-03-23T06:03:21.801Z,0.1
2023-03-23T06:08:22.124Z,0.2
2023-03-23T06:13:22.798Z,0.3
2023-03-23T06:18:23.019Z,0.1
2023-03-23T06:23:23.743Z,0.3
2023-03-23T06:28:24.112Z,0.3
2023-03-23T06:33:24.518Z,0.2
2023-03-23T06:38:25.399Z,0.2
2023-03-23T06:43:25.354Z,0.4
2023-03-23T06:48:25.672Z,0.7
2023-03-23T06:53:26.123Z,0.8
2023-03-23T06:58:26.676Z,0.4
2023-03-23T07:03:27.125Z,0.6
2023-03-23T07:08:28.147Z,0.5
2023-03-23T07:13:28.128Z,0.3
2023-03-23T07:18:28.562Z,0.3
2023-03-23T07:23:28.867Z,0.2
2023-03-23T07:28:29.457Z,0.5
2023-03-23T07:33:29.785Z,0.3
2023-03-23T07:38:30.309Z,0.4
2023-03-23T07:43:30.753Z,0.3
2023-03-23T07:48:31.134Z,0.4
2023-03-23T07:53:31.607Z,0.3
2023-03-23T07:58:32.098Z,0.3
2023-03-23T08:03:32.588Z,0.5
2023-03-23T08:08:32.969Z,0.5
2023-03-23T08:13:33.344Z,0.5
2023-03-23T08:18:33.954Z,0.4
2023-03-23T08:23:34.114Z,0.7
2023-03-23T08:28:34.814Z,0.6
2023-03-23T08:33:35.025Z,0.7
2023-03-23T08:38:35.482Z,0.6
2023-03-23T08:43:36.056Z,0.6
2023-03-23T08:49:13.244Z,0.8
2023-03-23T08:53:37.268Z,0.6
2023-03-23T08:58:37.439Z,0.6
2023-03-23T09:03:37.731Z,0.8
2023-03-23T09:08:38.294Z,0.4
2023-03-23T09:13:38.730Z,0.8
2023-03-23T09:18:39.242Z,0.7
2023-03-23T09:23:39.772Z,0.6
2023-03-23T09:28:40.234Z,1.0
2023-03-23T09:33:40.693Z,0.6
2023-03-23T09:38:41.074Z,0.9
2023-03-23T09:43:41.679Z,0.6
2023-03-23T09:48:42.076Z,0.8
2023-03-23T09:53:42.487Z,1.0
2023-03-23T09:58:44.339Z,0.5
2023-03-23T10:03:43.557Z,0.8
2023-03-23T10:08:51.601Z,0.7
2023-03-23T10:13:44.475Z,0.6
2023-03-23T10:18:44.892Z,0.6
2023-03-23T10:23:46.526Z,0.6
2023-03-23T10:28:45.969Z,0.7
2023-03-23T10:33:46.439Z,0.8
2023-03-23T10:38:46.896Z,0.5
2023-03-23T10:43:47.481Z,0.5
2023-03-23T10:48:47.876Z,0.7
2023-03-23T10:53:48.332Z,0.7
2023-03-23T10:58:49.014Z,0.5
2023-03-23T11:03:49.579Z,0.5
2023-03-23T11:08:49.852Z,0.5
2023-03-23T11:13:50.469Z,0.7
2023-03-23T11:18:50.770Z,0.7
2023-03-23T11:24:03.781Z,1.0
2023-03-23T11:28:51.857Z,0.9
2023-03-23T11:34:05.643Z,0.5
2023-03-23T11:38:52.794Z,0.5
2023-03-23T11:43:53.266Z,0.8
2023-03-23T11:48:53.738Z,0.6
2023-03-23T11:53:54.054Z,0.7
2023-03-23T11:58:54.887Z,0.7
2023-03-23T12:03:55.091Z,0.8
2023-03-23T12:08:55.759Z,0.5
2023-03-23T12:13:58.595Z,1.1
2023-03-23T12:18:56.639Z,0.9
2023-03-23T12:23:59.443Z,0.5
2023-03-23T12:28:57.781Z,0.7
2023-03-23T12:33:58.180Z,0.8
2023-03-23T12:38:58.782Z,0.6
2023-03-23T12:43:59.254Z,0.8
2023-03-23T12:48:59.803Z,0.7
2023-03-23T12:54:00.358Z,0.7
2023-03-23T12:59:00.885Z,0.9
2023-03-23T13:04:01.674Z,0.7
2023-03-23T13:09:02.031Z,1.5
2023-03-23T13:14:02.699Z,0.9
2023-03-23T13:19:03.122Z,0.8
2023-03-23T13:24:03.733Z,0.8
2023-03-23T13:29:04.295Z,0.6
2023-03-23T13:34:04.924Z,0.3
2023-03-23T13:39:05.393Z,0.6
2023-03-23T13:44:06.042Z,0.3
2023-03-23T13:49:15.907Z,0.4
2023-03-23T13:54:07.129Z,0.4
2023-03-23T13:59:07.742Z,0.4
2023-03-23T14:04:08.206Z,0.3
2023-03-23T14:09:09.124Z,0.4
2023-03-23T14:14:09.460Z,0.5
2023-03-23T14:19:09.846Z,0.4
2023-03-23T14:24:10.707Z,0.6
2023-03-23T14:29:11.142Z,0.8
2023-03-23T14:34:11.647Z,0.8
2023-03-23T14:39:12.175Z,0.5
2023-03-23T14:44:12.901Z,0.9
2023-03-23T14:49:13.488Z,0.8
2023-03-23T14:54:13.960Z,0.8
2023-03-23T14:59:14.592Z,0.8
2023-03-23T15:04:15.034Z,0.8
2023-03-23T15:09:16.425Z,0.8
2023-03-23T15:14:16.349Z,0.9
2023-03-23T15:19:16.819Z,0.7
2023-03-23T15:24:17.755Z,1.0
2023-03-23T15:29:17.946Z,0.9
2023-03-23T15:34:18.500Z,0.8
2023-03-23T15:39:19.103Z,0.9
2023-03-23T15:44:19.854Z,0.7
2023-03-23T15:49:20.264Z,0.8
2023-03-23T15:54:20.731Z,1.0
2023-03-23T15:59:21.426Z,0.8
2023-03-23T16:04:21.983Z,0.8
2023-03-23T16:09:22.848Z,0.8
2023-03-23T16:14:23.083Z,1.2
2023-03-23T16:19:23.565Z,1.2
2023-03-23T16:24:24.113Z,0.9
2023-03-23T16:29:43.392Z,0.9
2023-03-23T16:34:25.257Z,2.1
2023-03-23T16:39:25.818Z,0.8
2023-03-23T16:44:26.296Z,1.0
2023-03-23T16:49:26.890Z,0.7
2023-03-23T16:54:27.449Z,1.2
2023-03-23T16:59:27.885Z,1.2
2023-03-23T17:04:28.780Z,1.3
2023-03-23T17:09:29.140Z,2.1
2023-03-23T17:14:29.769Z,1.3
2023-03-23T17:19:30.085Z,1.1
2023-03-23T17:24:30.680Z,0.9
2023-03-23T17:29:31.414Z,0.7
2023-03-23T17:34:31.826Z,0.8
2023-03-23T17:39:32.520Z,0.6
2023-03-23T17:44:32.989Z,0.8
2023-03-23T17:49:33.698Z,0.7
2023-03-23T17:54:34.052Z,0.8
2023-03-23T17:59:34.883Z,0.9
2023-03-23T18:04:35.664Z,1.0
2023-03-23T18:09:35.904Z,0.9
2023-03-23T18:14:36.568Z,0.7
2023-03-23T18:19:37.034Z,1.0
2023-03-23T18:24:37.494Z,0.9
2023-03-23T18:29:38.175Z,1.2
2023-03-23T18:34:38.625Z,0.7
2023-03-23T18:39:39.253Z,0.6
2023-03-23T18:44:39.931Z,0.8
2023-03-23T18:49:40.415Z,0.6
2023-03-23T18:54:40.805Z,0.5
2023-03-23T18:59:41.661Z,0.6
2023-03-23T19:04:42.123Z,0.5
2023-03-23T19:09:42.728Z,0.4
2023-03-23T19:14:43.136Z,0.6
2023-03-23T19:19:43.862Z,0.4
2023-03-23T19:24:44.136Z,0.4
2023-03-23T19:29:44.910Z,0.4
2023-03-23T19:34:50.510Z,0.5
2023-03-23T19:39:46.218Z,0.4
2023-03-23T19:44:46.535Z,0.3
2023-03-23T19:49:46.861Z,0.6
2023-03-23T19:54:47.451Z,0.5
2023-03-23T19:59:48.300Z,0.4
2023-03-23T20:04:48.636Z,0.3
2023-03-23T20:09:49.715Z,0.3
2023-03-23T20:14:49.682Z,0.5
2023-03-23T20:19:50.186Z,0.4
2023-03-23T20:24:51.184Z,0.4
2023-03-23T20:29:51.338Z,0.4
2023-03-23T20:34:51.812Z,0.3
2023-03-23T20:39:52.521Z,0.5
2023-03-23T20:44:52.893Z,0.4
2023-03-23T20:49:53.763Z,0.5
2023-03-23T20:54:53.994Z,0.4
2023-03-23T20:59:54.589Z,0.4
2023-03-23T21:04:55.076Z,0.3
2023-03-23T21:09:55.919Z,0.4
2023-03-23T21:14:56.262Z,0.3
2023-03-23T21:19:56.731Z,0.4
2023-03-23T21:24:57.214Z,0.3
2023-03-23T21:29:57.820Z,0.6
2023-03-23T21:34:58.123Z,0.4
2023-03-23T21:39:58.816Z,0.3
2023-03-23T21:44:59.454Z,0.5
2023-03-23T21:49:59.821Z,0.3
2023-03-23T21:55:00.429Z,0.7
2023-03-23T22:00:00.925Z,0.4
2023-03-23T22:05:01.420Z,0.5
2023-03-23T22:10:01.818Z,0.4
2023-03-23T22:15:02.469Z,0.6
2023-03-23T22:20:02.876Z,0.3
2023-03-23T22:25:03.549Z,0.5
2023-03-23T22:30:04.055Z,0.4
2023-03-23T22:35:04.573Z,0.4
2023-03-23T22:40:05.054Z,0.4
2023-03-23T22:45:05.631Z,0.5
2023-03-23T22:50:06.091Z,0.6
2023-03-23T22:55:06.561Z,0.5
2023-03-23T23:00:07.253Z,0.4
2023-03-23T23:05:07.610Z,0.5
2023-03-23T23:10:08.084Z,0.6
2023-03-23T23:15:08.572Z,0.5
2023-03-23T23:20:09.051Z,0.5
2023-03-23T23:25:09.553Z,0.7
2023-03-23T23:30:10.041Z,0.6
2023-03-23T23:35:10.498Z,0.4
2023-03-23T23:40:11.046Z,0.6
2023-03-23T23:45:11.602Z,0.7
2023-03-23T23:50:11.968Z,0.8
2023-03-23T23:55:12.520Z,0.6
